Time;durP1;ratioP1;P1;durP2;ratioP2;P2;SDS_P1;SDS_P2;PMS_P1;PMS_P2;Temp;Humidity;BMP_temperature;BMP_pressure;BME280_temperature;BME280_humidity;BME280_pressure;Samples;Min_cycle;Max_cycle;Signal;HPM_P1;HPM_P2
2022/09/25 00:01:05;;;;;;;1.95;1.85;;;;;;;10.94;89.08;100319.94;5066586;28;20028;-69
2022/09/25 00:03:31;;;;;;;0.40;0.40;;;;;;;10.93;89.09;100310.44;5066440;28;20047;-69
2022/09/25 00:06:04;;;;;;;0.55;0.55;;;;;;;10.90;89.06;100312.19;5066114;28;20024;-68
2022/09/25 00:08:30;;;;;;;0.60;0.60;;;;;;;10.89;88.97;100313.03;5066328;28;20408;-68
2022/09/25 00:10:55;;;;;;;0.47;0.47;;;;;;;10.83;89.07;100304.47;5066703;28;20468;-68
2022/09/25 00:13:21;;;;;;;8.02;4.15;;;;;;;10.78;89.11;100305.38;5066082;28;20033;-68
2022/09/25 00:15:50;;;;;;;1.45;1.38;;;;;;;10.75;89.58;100299.38;5066355;28;20110;-68
2022/09/25 00:19:48;;;;;;;0.40;0.40;;;;;;;10.71;89.50;100293.34;5065718;28;20064;-69
2022/09/25 00:21:03;;;;;;;0.50;0.50;;;;;;;10.73;89.41;100309.78;5065983;28;20036;-69
2022/09/25 00:23:29;;;;;;;0.52;0.52;;;;;;;10.68;89.63;100306.34;5065975;28;20071;-67
2022/09/25 00:25:55;;;;;;;0.50;0.50;;;;;;;10.65;89.55;100309.81;5066234;28;20473;-67
2022/09/25 00:28:21;;;;;;;0.40;0.40;;;;;;;10.60;89.54;100310.75;5066313;28;20044;-66
2022/09/25 00:30:46;;;;;;;0.40;0.40;;;;;;;10.63;89.51;100316.78;5065960;28;20025;-66
2022/09/25 00:33:12;;;;;;;0.40;0.40;;;;;;;10.63;89.51;100310.72;5065670;28;20024;-67
2022/09/25 00:35:37;;;;;;;0.40;0.40;;;;;;;10.62;89.89;100309.03;5065832;28;20033;-67
2022/09/25 00:38:02;;;;;;;0.40;0.40;;;;;;;10.61;89.73;100315.94;5065622;28;20044;-68
2022/09/25 00:40:27;;;;;;;1.35;1.25;;;;;;;10.62;89.83;100309.03;5065564;28;20025;-68
2022/09/25 00:42:53;;;;;;;0.68;0.68;;;;;;;10.60;89.98;100318.56;5065855;28;20025;-68
2022/09/25 00:45:20;;;;;;;0.40;0.40;;;;;;;10.58;90.11;100315.09;5065419;28;20080;-66
2022/09/25 00:47:53;;;;;;;1.00;0.95;;;;;;;10.59;90.17;100320.28;5065853;28;20043;-68
2022/09/25 00:50:25;;;;;;;0.50;0.50;;;;;;;10.58;90.30;100320.28;5065501;28;20090;-66
2022/09/25 00:52:53;;;;;;;0.50;0.50;;;;;;;10.57;90.36;100322.06;5065497;28;20052;-66
2022/09/25 00:55:22;;;;;;;0.40;0.40;;;;;;;10.54;90.60;100320.31;5065617;28;20055;-66
2022/09/25 00:57:51;;;;;;;0.40;0.40;;;;;;;10.57;90.47;100323.78;5065673;28;20468;-68
2022/09/25 01:00:16;;;;;;;0.45;0.45;;;;;;;10.56;90.58;100324.66;5065429;28;20029;-67
2022/09/25 01:02:46;;;;;;;0.40;0.40;;;;;;;10.55;90.75;100323.78;5063462;28;20036;-66
2022/09/25 01:05:15;;;;;;;0.50;0.50;;;;;;;10.60;90.61;100327.22;5065294;28;20057;-67
2022/09/25 01:07:44;;;;;;;0.40;0.40;;;;;;;10.64;90.60;100331.47;5064802;28;20040;-68
2022/09/25 01:10:09;;;;;;;0.40;0.40;;;;;;;10.66;90.42;100321.09;5065543;28;20032;-67
2022/09/25 01:12:42;;;;;;;0.57;0.57;;;;;;;10.68;90.20;100319.34;5065184;28;20025;-68
2022/09/25 01:15:11;;;;;;;1.40;1.30;;;;;;;10.64;90.34;100321.09;5065196;28;20013;-67
2022/09/25 01:18:07;;;;;;;0.60;0.60;;;;;;;10.62;90.52;100304.66;5064825;28;20049;-67
2022/09/25 01:21:10;;;;;;;0.50;0.50;;;;;;;10.63;90.53;100319.38;5065074;28;20025;-68
2022/09/25 01:23:35;;;;;;;0.52;0.52;;;;;;;10.65;90.58;100309.81;5064982;28;20036;-68
2022/09/25 01:26:30;;;;;;;0.43;0.43;;;;;;;10.70;90.57;100307.22;5065073;28;20021;-68
2022/09/25 01:29:11;;;;;;;0.50;0.50;;;;;;;10.71;90.60;100314.13;5065096;28;20469;-67
2022/09/25 01:32:09;;;;;;;0.40;0.40;;;;;;;10.71;90.59;100323.63;5064985;28;20051;-68
2022/09/25 01:34:59;;;;;;;0.40;0.40;;;;;;;10.70;90.16;100314.13;5065040;28;20027;-67
2022/09/25 01:37:47;;;;;;;1.77;1.67;;;;;;;10.68;90.54;100310.69;5062424;28;20494;-67
2022/09/25 01:40:22;;;;;;;0.40;0.40;;;;;;;10.66;90.39;100311.56;5063423;28;20029;-68
2022/09/25 01:42:52;;;;;;;0.40;0.40;;;;;;;10.68;90.39;100314.16;5065076;28;20060;-69
2022/09/25 01:45:35;;;;;;;0.40;0.40;;;;;;;10.71;90.65;100311.50;5065015;28;20029;-68
2022/09/25 01:48:02;;;;;;;0.55;0.55;;;;;;;10.75;90.74;100304.56;5065175;28;20033;-69
2022/09/25 01:50:36;;;;;;;0.40;0.40;;;;;;;10.82;90.51;100305.34;5064804;28;20036;-69
2022/09/25 01:53:09;;;;;;;0.40;0.40;;;;;;;10.86;90.81;100307.03;5064948;28;20025;-68
2022/09/25 01:55:41;;;;;;;0.43;0.43;;;;;;;10.85;90.63;100311.38;5064795;28;20025;-68
2022/09/25 01:58:15;;;;;;;0.60;0.60;;;;;;;10.87;90.22;100304.44;5064901;28;20032;-68
2022/09/25 02:00:49;;;;;;;0.77;0.77;;;;;;;10.86;89.80;100294.06;5064784;28;20559;-69
2022/09/25 02:03:46;;;;;;;0.40;0.40;;;;;;;10.86;89.69;100296.66;5064397;28;20029;-67
2022/09/25 02:06:16;;;;;;;1.25;1.25;;;;;;;10.81;90.17;100295.84;5064511;28;20025;-69
2022/09/25 02:08:53;;;;;;;0.40;0.40;;;;;;;10.83;89.92;100289.72;5064503;28;20025;-68
2022/09/25 02:11:19;;;;;;;0.85;0.85;;;;;;;10.85;90.38;100288.00;5064736;28;20021;-67
2022/09/25 02:13:59;;;;;;;0.68;0.60;;;;;;;10.93;89.94;100287.06;5067243;28;20023;-67
2022/09/25 02:16:35;;;;;;;0.50;0.50;;;;;;;10.91;90.09;100279.25;5068274;28;20045;-67
2022/09/25 02:21:45;;;;;;;0.55;0.55;;;;;;;10.85;90.12;100275.00;5068022;28;20051;-68
2022/09/25 02:24:20;;;;;;;0.43;0.43;;;;;;;10.89;90.28;100263.69;5067980;28;20029;-68
2022/09/25 02:26:46;;;;;;;0.50;0.50;;;;;;;10.92;90.23;100265.41;5068259;28;20021;-68
2022/09/25 02:29:12;;;;;;;0.90;0.90;;;;;;;10.96;90.01;100253.25;5067542;28;20052;-67
2022/09/25 02:31:56;;;;;;;0.40;0.40;;;;;;;10.96;90.19;100268.84;5067820;28;20437;-68
2022/09/25 02:34:21;;;;;;;0.40;0.40;;;;;;;10.97;90.03;100249.75;5067443;28;20106;-68
2022/09/25 02:36:47;;;;;;;0.45;0.45;;;;;;;11.02;90.21;100258.38;5067771;28;20029;-68
2022/09/25 02:39:20;;;;;;;0.50;0.50;;;;;;;11.07;89.87;100264.34;5067835;28;20031;-68
2022/09/25 02:41:57;;;;;;;0.47;0.47;;;;;;;11.05;89.71;100255.72;5067962;28;20029;-68
2022/09/25 02:44:31;;;;;;;0.77;0.77;;;;;;;11.00;89.57;100250.59;5066969;28;20029;-68
2022/09/25 02:47:05;;;;;;;0.90;0.85;;;;;;;10.98;89.69;100256.66;5067874;28;20029;-68
2022/09/25 02:50:14;;;;;;;0.98;0.98;;;;;;;10.97;89.71;100249.75;5067822;28;20033;-69
2022/09/25 02:52:51;;;;;;;0.50;0.50;;;;;;;10.89;89.58;100249.88;4986227;28;20039;-68
2022/09/25 02:55:40;;;;;;;1.40;1.38;;;;;;;10.87;89.62;100252.47;4986474;28;20069;-68
2022/09/25 02:58:12;;;;;;;0.40;0.40;;;;;;;10.86;89.52;100245.56;4986627;28;20066;-68
2022/09/25 03:00:40;;;;;;;0.60;0.60;;;;;;;10.89;89.46;100242.91;4986225;28;20042;-68
2022/09/25 03:03:10;;;;;;;0.50;0.50;;;;;;;10.89;89.82;100249.88;4986120;28;20093;-68
2022/09/25 03:05:36;;;;;;;0.50;0.50;;;;;;;10.83;89.88;100250.78;4986285;28;20038;-67
2022/09/25 03:10:47;;;;;;;0.40;0.40;;;;;;;10.85;89.94;100243.84;4985896;28;20030;-67
2022/09/25 03:13:18;;;;;;;0.40;0.40;;;;;;;10.92;89.75;100247.22;4986228;28;20027;-68
2022/09/25 03:15:47;;;;;;;0.50;0.50;;;;;;;10.88;89.98;100238.59;4986046;28;20070;-68
2022/09/25 03:18:13;;;;;;;0.40;0.40;;;;;;;10.89;89.95;100248.09;4985925;28;20057;-67
2022/09/25 03:20:39;;;;;;;0.45;0.45;;;;;;;10.89;90.14;100240.31;4986091;28;20057;-68
2022/09/25 03:23:04;;;;;;;0.50;0.50;;;;;;;10.87;90.19;100231.69;4985934;28;20023;-67
2022/09/25 03:25:30;;;;;;;0.40;0.40;;;;;;;10.93;90.04;100237.72;4984117;28;20495;-68
2022/09/25 03:27:55;;;;;;;0.60;0.60;;;;;;;10.88;90.05;100245.53;5021343;28;20041;-68
2022/09/25 03:30:20;;;;;;;0.70;0.70;;;;;;;10.89;89.99;100242.91;5065764;28;20032;-67
2022/09/25 03:32:45;;;;;;;1.50;1.40;;;;;;;10.86;89.99;100237.75;5066959;28;20032;-68
2022/09/25 03:35:11;;;;;;;0.50;0.50;;;;;;;10.84;89.73;100231.75;5066223;28;20029;-68
2022/09/25 03:37:37;;;;;;;0.40;0.40;;;;;;;10.78;89.90;100232.66;5066917;28;20024;-67
2022/09/25 03:40:02;;;;;;;0.75;0.75;;;;;;;10.75;89.84;100239.66;5065296;28;20028;-67
2022/09/25 03:42:28;;;;;;;0.50;0.50;;;;;;;10.73;89.72;100231.00;5065473;28;20082;-67
2022/09/25 03:44:54;;;;;;;4.78;3.80;;;;;;;10.64;89.66;100230.22;5066696;28;20021;-68
2022/09/25 03:47:19;;;;;;;0.40;0.40;;;;;;;10.58;90.10;100226.84;5066734;28;20036;-67
2022/09/25 03:49:45;;;;;;;0.47;0.47;;;;;;;10.51;90.13;100226.06;5066879;28;20102;-67
2022/09/25 03:52:11;;;;;;;0.68;0.68;;;;;;;10.54;90.38;100223.44;5066033;28;20029;-66
2022/09/25 03:54:37;;;;;;;0.40;0.40;;;;;;;10.53;90.60;100221.69;5066549;28;20059;-67
2022/09/25 03:57:02;;;;;;;0.43;0.43;;;;;;;10.48;90.65;100213.97;5066556;28;20029;-68
2022/09/25 03:59:28;;;;;;;0.40;0.40;;;;;;;10.48;91.04;100218.31;5066234;28;20058;-68
2022/09/25 04:01:54;;;;;;;0.45;0.45;;;;;;;10.38;90.95;100207.97;5066490;28;20016;-67
2022/09/25 04:04:19;;;;;;;0.45;0.45;;;;;;;10.37;90.89;100216.66;5065414;28;20108;-67
2022/09/25 04:06:44;;;;;;;0.60;0.60;;;;;;;10.31;91.09;100224.50;5065760;28;20028;-68
2022/09/25 04:09:10;;;;;;;0.80;0.80;;;;;;;10.23;91.29;100218.53;5066133;28;20032;-67
2022/09/25 04:11:36;;;;;;;0.60;0.60;;;;;;;10.20;91.02;100219.44;5064916;28;20023;-67
2022/09/25 04:14:02;;;;;;;0.50;0.50;;;;;;;10.12;91.21;100221.22;5064777;28;20041;-67
2022/09/25 04:16:30;;;;;;;0.40;0.40;;;;;;;10.11;91.54;100219.53;5065757;28;20052;-67
2022/09/25 04:18:55;;;;;;;0.40;0.40;;;;;;;10.06;91.68;100222.16;5066318;28;20032;-67
2022/09/25 04:21:21;;;;;;;0.68;0.68;;;;;;;10.03;91.66;100219.59;5066093;28;20020;-67
2022/09/25 04:24:47;;;;;;;14.15;2.95;;;;;;;10.03;91.64;100219.59;5065758;28;20516;-67
2022/09/25 04:26:31;;;;;;;0.40;0.40;;;;;;;9.97;91.85;100211.88;5065761;28;20095;-67
2022/09/25 04:29:00;;;;;;;1.60;1.50;;;;;;;10.01;92.01;100219.63;5064631;28;20020;-67
2022/09/25 04:31:26;;;;;;;0.50;0.50;;;;;;;10.04;91.77;100221.31;5066127;28;20420;-68
2022/09/25 04:33:51;;;;;;;0.50;0.50;;;;;;;10.04;92.07;100226.50;5065485;28;20028;-67
2022/09/25 04:36:17;;;;;;;0.52;0.52;;;;;;;10.08;92.32;100220.38;5065263;28;20051;-68
2022/09/25 04:38:43;;;;;;;0.43;0.43;;;;;;;10.14;91.64;100220.34;5064411;28;20033;-67
2022/09/25 04:41:08;;;;;;;0.40;0.40;;;;;;;10.12;91.74;100222.09;5065916;28;20108;-68
2022/09/25 04:43:34;;;;;;;0.38;0.38;;;;;;;10.13;91.87;100222.94;5065415;28;20540;-68
2022/09/25 04:46:02;;;;;;;0.40;0.40;;;;;;;10.13;91.76;100220.34;5064164;28;20036;-68
2022/09/25 04:48:28;;;;;;;0.50;0.50;;;;;;;10.12;91.93;100229.00;5065167;28;20059;-68
2022/09/25 04:50:53;;;;;;;1.08;1.08;;;;;;;10.15;92.23;100216.88;5065199;28;20025;-67
2022/09/25 04:53:18;;;;;;;1.25;1.25;;;;;;;10.12;92.11;100201.34;5065422;28;20016;-66
2022/09/25 04:55:45;;;;;;;0.40;0.40;;;;;;;10.29;92.36;100218.47;5065570;28;20469;-66
2022/09/25 04:58:10;;;;;;;0.40;0.40;;;;;;;10.25;92.41;100211.59;5065445;28;20084;-67
2022/09/25 05:00:37;;;;;;;0.57;0.57;;;;;;;10.30;92.57;100217.59;5065651;28;20030;-68
2022/09/25 05:03:04;;;;;;;0.60;0.60;;;;;;;10.36;92.32;100222.72;5065665;28;20090;-67
2022/09/25 05:05:30;;;;;;;0.80;0.80;;;;;;;10.43;92.22;100217.47;5065428;28;20057;-67
2022/09/25 05:07:58;;;;;;;0.73;0.70;;;;;;;10.39;92.20;100224.41;5065043;28;20088;-68
2022/09/25 05:10:28;;;;;;;0.45;0.45;;;;;;;10.44;92.04;100225.25;5064737;28;20068;-68
2022/09/25 05:13:01;;;;;;;0.70;0.70;;;;;;;10.44;92.04;100225.25;5065762;28;20103;-67
2022/09/25 05:15:28;;;;;;;0.60;0.60;;;;;;;10.46;91.69;100223.53;5065229;28;20041;-67
2022/09/25 05:18:14;;;;;;;0.40;0.40;;;;;;;10.45;91.68;100224.34;5065216;28;20060;-68
2022/09/25 05:20:39;;;;;;;0.88;0.88;;;;;;;10.42;91.76;100221.78;5063794;28;20108;-67
2022/09/25 05:23:04;;;;;;;0.50;0.50;;;;;;;10.41;91.86;100233.06;5063815;28;20033;-68
2022/09/25 05:25:30;;;;;;;0.40;0.40;;;;;;;10.45;91.51;100226.13;5064989;28;20036;-67
2022/09/25 05:27:58;;;;;;;0.50;0.50;;;;;;;10.45;91.56;100228.72;5065294;28;20094;-68
2022/09/25 05:30:26;;;;;;;0.50;0.50;;;;;;;10.45;91.77;100226.13;5065082;28;20441;-68
2022/09/25 05:32:51;;;;;;;0.50;0.50;;;;;;;10.47;91.60;100230.44;5065133;28;20052;-67
2022/09/25 05:35:22;;;;;;;0.57;0.57;;;;;;;10.49;91.39;100225.22;5065232;28;20059;-68
2022/09/25 05:37:47;;;;;;;0.47;0.47;;;;;;;10.45;91.30;100221.75;5065299;28;20013;-68
2022/09/25 05:40:14;;;;;;;0.40;0.40;;;;;;;10.48;91.27;100220.91;5064981;28;20025;-67
2022/09/25 05:42:42;;;;;;;0.43;0.43;;;;;;;10.50;91.52;100227.78;5065222;28;20025;-67
2022/09/25 05:45:08;;;;;;;0.70;0.70;;;;;;;10.52;91.66;100225.19;5065020;28;20469;-68
2022/09/25 05:47:33;;;;;;;0.40;0.40;;;;;;;10.51;91.41;100224.31;5066143;28;20036;-70
2022/09/25 05:49:59;;;;;;;0.40;0.40;;;;;;;10.58;91.29;100229.44;5068973;28;20086;-69
2022/09/25 05:52:24;;;;;;;0.50;0.50;;;;;;;10.56;90.87;100220.81;5068789;28;20017;-67
2022/09/25 05:54:49;;;;;;;0.50;0.50;;;;;;;10.50;90.60;100217.41;5069083;28;20270;-69
2022/09/25 05:57:14;;;;;;;1.25;1.15;;;;;;;10.48;90.56;100207.94;5068834;28;20477;-68
2022/09/25 05:59:40;;;;;;;0.40;0.40;;;;;;;10.46;90.58;100209.66;5068594;28;20025;-67
2022/09/25 06:02:05;;;;;;;0.50;0.50;;;;;;;10.44;90.66;100206.22;5068787;28;20028;-68
2022/09/25 06:04:31;;;;;;;0.50;0.50;;;;;;;10.45;90.58;100213.13;5068334;28;20029;-69
2022/09/25 06:06:57;;;;;;;0.85;0.85;;;;;;;10.45;90.43;100206.19;5068735;28;20120;-70
2022/09/25 06:09:22;;;;;;;0.40;0.40;;;;;;;10.51;90.70;100210.50;5068478;28;20049;-70
2022/09/25 06:11:47;;;;;;;0.40;0.40;;;;;;;10.54;90.50;100203.50;5068709;28;20032;-68
2022/09/25 06:14:13;;;;;;;0.50;0.50;;;;;;;10.51;90.71;100198.34;5067334;28;20021;-68
2022/09/25 06:16:39;;;;;;;0.50;0.50;;;;;;;10.56;91.05;100200.91;5067932;28;20444;-66
2022/09/25 06:19:04;;;;;;;0.43;0.43;;;;;;;10.74;91.24;100193.78;5067207;28;20028;-67
2022/09/25 06:21:30;;;;;;;0.55;0.55;;;;;;;11.01;91.44;100202.94;5068327;28;20020;-67
2022/09/25 06:23:55;;;;;;;0.45;0.45;;;;;;;11.20;91.54;100197.47;5068090;28;20059;-68
2022/09/25 06:26:21;;;;;;;0.40;0.40;;;;;;;11.45;90.86;100183.28;5067560;28;20078;-68
2022/09/25 06:28:46;;;;;;;0.60;0.60;;;;;;;11.50;90.12;100182.31;5068462;28;20021;-69
2022/09/25 06:31:11;;;;;;;0.40;0.40;;;;;;;11.46;89.25;100184.97;5068361;28;20029;-68
2022/09/25 06:33:37;;;;;;;0.40;0.40;;;;;;;11.38;89.46;100196.38;5067768;28;20377;-69
2022/09/25 06:36:04;;;;;;;0.50;0.50;;;;;;;11.42;89.49;100194.59;5068230;28;20080;-67
2022/09/25 06:38:33;;;;;;;1.42;1.42;;;;;;;11.42;88.47;100188.53;5066703;28;20122;-68
2022/09/25 06:40:59;;;;;;;0.47;0.47;;;;;;;11.25;87.79;100190.50;5066891;28;20021;-69
2022/09/25 06:43:25;;;;;;;0.70;0.70;;;;;;;11.14;87.65;100193.25;5068008;28;20473;-69
2022/09/25 06:45:50;;;;;;;0.50;0.50;;;;;;;11.06;87.74;100191.63;5067948;28;20031;-70
2022/09/25 06:48:16;;;;;;;1.10;1.10;;;;;;;11.05;88.76;100195.97;5067877;28;20021;-68
2022/09/25 06:50:51;;;;;;;0.40;0.40;;;;;;;11.20;89.03;100196.66;5068067;28;20029;-70
2022/09/25 06:53:18;;;;;;;0.50;0.50;;;;;;;11.39;89.14;100181.59;5067203;28;20025;-69
2022/09/25 06:55:44;;;;;;;1.63;1.52;;;;;;;11.77;89.68;100176.69;5067737;28;20017;-69
2022/09/25 06:58:11;;;;;;;0.65;0.65;;;;;;;12.42;90.33;100168.59;5067767;28;20226;-69
2022/09/25 07:00:37;;;;;;;0.40;0.40;;;;;;;12.93;88.96;100174.50;5066611;28;20021;-69
2022/09/25 07:05:47;;;;;;;0.75;0.75;;;;;;;13.58;88.72;100174.75;5067034;28;20080;-68
2022/09/25 07:08:15;;;;;;;0.73;0.73;;;;;;;14.29;89.65;100174.69;5067508;28;20120;-68
2022/09/25 07:10:47;;;;;;;0.30;0.30;;;;;;;15.18;88.39;100182.56;5067679;28;20024;-68
2022/09/25 07:13:12;;;;;;;0.40;0.40;;;;;;;15.61;85.54;100188.19;5066153;28;20028;-68
2022/09/25 07:15:38;;;;;;;0.73;0.73;;;;;;;15.83;81.45;100187.47;5067508;28;20077;-68
2022/09/25 07:18:06;;;;;;;0.52;0.52;;;;;;;15.72;78.54;100179.09;5066591;28;20071;-69
2022/09/25 07:20:31;;;;;;;0.30;0.30;;;;;;;15.80;78.09;100182.34;5067331;28;20412;-69
2022/09/25 07:23:02;;;;;;;0.40;0.40;;;;;;;15.81;77.33;100188.44;5067160;28;20086;-69
2022/09/25 07:25:30;;;;;;;0.70;0.70;;;;;;;15.70;77.60;100173.94;5067412;28;20032;-69
2022/09/25 07:27:57;;;;;;;0.40;0.40;;;;;;;15.59;78.67;100182.13;5066306;28;20186;-69
2022/09/25 07:30:25;;;;;;;0.68;0.68;;;;;;;15.30;75.91;100186.59;5066111;28;20040;-68
2022/09/25 07:32:51;;;;;;;0.30;0.30;;;;;;;14.92;77.30;100184.22;5067043;28;20104;-69
2022/09/25 07:35:17;;;;;;;0.30;0.30;;;;;;;14.67;76.61;100189.28;5067264;28;20488;-68
2022/09/25 07:37:42;;;;;;;0.40;0.40;;;;;;;14.43;76.56;100189.97;5066846;28;20055;-71
2022/09/25 07:40:11;;;;;;;0.30;0.30;;;;;;;14.22;76.78;100181.81;5066977;28;20021;-71
2022/09/25 07:42:36;;;;;;;0.85;0.85;;;;;;;13.97;77.17;100179.00;5065506;28;20032;-69
2022/09/25 07:45:02;;;;;;;0.30;0.30;;;;;;;13.86;77.57;100181.91;5066440;28;20025;-70
2022/09/25 07:47:30;;;;;;;1.15;1.15;;;;;;;13.83;77.45;100188.06;5069478;28;20088;-71
2022/09/25 07:49:56;;;;;;;0.40;0.40;;;;;;;13.80;78.01;100195.13;5066266;28;20021;-70
2022/09/25 07:52:21;;;;;;;0.40;0.40;;;;;;;13.87;78.36;100181.88;5066961;28;20035;-70
2022/09/25 07:54:47;;;;;;;0.60;0.60;;;;;;;13.89;78.06;100174.00;5066984;28;20067;-71
2022/09/25 07:57:13;;;;;;;0.32;0.32;;;;;;;13.87;77.12;100194.91;5066866;28;20056;-70
2022/09/25 07:59:39;;;;;;;1.33;1.23;;;;;;;13.60;76.83;100181.66;5066489;28;20029;-70
2022/09/25 08:02:07;;;;;;;0.40;0.40;;;;;;;13.41;77.54;100181.22;5066593;28;20495;-70
2022/09/25 08:04:33;;;;;;;1.00;1.00;;;;;;;13.30;77.64;100176.28;5065275;28;20036;-71
2022/09/25 08:06:59;;;;;;;1.25;1.20;;;;;;;13.26;78.21;100177.22;5066421;28;20020;-70
2022/09/25 08:09:24;;;;;;;0.55;0.55;;;;;;;13.43;78.54;100175.97;5066246;28;20033;-71
2022/09/25 08:11:50;;;;;;;2.60;2.38;;;;;;;13.59;79.18;100171.28;5065920;28;20035;-70
2022/09/25 08:14:17;;;;;;;0.32;0.32;;;;;;;13.72;78.41;100177.88;5066520;28;20028;-71
2022/09/25 08:16:43;;;;;;;0.30;0.30;;;;;;;13.62;78.09;100164.25;5065061;28;20070;-69
2022/09/25 08:19:10;;;;;;;0.60;0.60;;;;;;;13.62;77.63;100179.88;5066447;28;20045;-71
2022/09/25 08:21:35;;;;;;;0.38;0.38;;;;;;;13.50;78.21;100177.53;5064891;28;20465;-70
2022/09/25 08:24:01;;;;;;;0.40;0.40;;;;;;;13.47;78.56;100175.00;5066010;28;20040;-71
2022/09/25 08:26:30;;;;;;;0.50;0.50;;;;;;;13.47;78.12;100178.47;5066200;28;20021;-70
2022/09/25 08:28:55;;;;;;;0.30;0.30;;;;;;;13.53;78.21;100177.47;5066146;28;20263;-71
2022/09/25 08:31:21;;;;;;;1.02;1.02;;;;;;;13.49;78.19;100168.00;5066236;28;20024;-71
2022/09/25 08:33:49;;;;;;;0.60;0.60;;;;;;;13.46;78.44;100171.56;5066214;28;20039;-70
2022/09/25 08:36:15;;;;;;;0.47;0.47;;;;;;;13.38;78.60;100173.47;5064696;28;20027;-70
2022/09/25 08:38:41;;;;;;;0.85;0.85;;;;;;;13.38;79.15;100168.25;5065771;28;20144;-69
2022/09/25 08:41:14;;;;;;;0.82;0.82;;;;;;;13.55;78.86;100172.22;5065742;28;20017;-71
2022/09/25 08:43:43;;;;;;;1.52;1.42;;;;;;;13.60;77.33;100170.38;5065081;28;20017;-72
2022/09/25 08:49:25;;;;;;;0.93;0.90;;;;;;;13.23;79.29;100172.94;5065681;28;20110;-72
2022/09/25 08:51:55;;;;;;;0.80;0.80;;;;;;;13.17;79.75;100173.09;5064024;28;20469;-72
2022/09/25 08:54:27;;;;;;;0.40;0.40;;;;;;;13.06;80.08;100175.06;5065507;28;20108;-71
2022/09/25 08:57:11;;;;;;;0.45;0.45;;;;;;;13.06;80.20;100156.84;5064162;28;20044;-71
2022/09/25 08:59:42;;;;;;;0.63;0.63;;;;;;;13.09;80.38;100165.44;5065600;28;20084;-70
2022/09/25 09:02:15;;;;;;;1.00;1.00;;;;;;;13.15;80.02;100172.25;5065571;28;20032;-72
2022/09/25 09:04:50;;;;;;;0.70;0.70;;;;;;;13.07;80.67;100175.03;5065430;28;20021;-72
2022/09/25 09:07:34;;;;;;;0.57;0.57;;;;;;;12.94;80.50;100166.63;5065414;28;20036;-71
2022/09/25 09:10:07;;;;;;;1.77;1.63;;;;;;;12.83;81.13;100161.66;5064209;28;20028;-71
2022/09/25 09:12:46;;;;;;;0.40;0.40;;;;;;;12.80;81.44;100153.91;5065320;28;20089;-70
2022/09/25 09:15:30;;;;;;;13.68;2.15;;;;;;;12.88;82.04;100161.56;5065443;28;20029;-70
2022/09/25 09:17:58;;;;;;;0.25;0.25;;;;;;;13.12;81.96;100149.75;5064960;28;20130;-69
2022/09/25 09:20:39;;;;;;;0.70;0.70;;;;;;;13.25;81.26;100137.28;5065109;28;20507;-70
2022/09/25 09:23:06;;;;;;;0.50;0.50;;;;;;;13.33;80.88;100147.53;5064300;28;20028;-69
2022/09/25 09:25:39;;;;;;;0.40;0.40;;;;;;;13.32;81.20;100148.41;5065328;28;20053;-70
2022/09/25 09:28:30;;;;;;;0.40;0.40;;;;;;;13.38;81.18;100150.00;5065180;28;20035;-70
2022/09/25 09:30:56;;;;;;;0.40;0.40;;;;;;;13.44;80.87;100139.44;5065107;28;20047;-69
2022/09/25 09:33:26;;;;;;;0.38;0.38;;;;;;;13.46;81.22;100139.38;5065020;28;20053;-69
2022/09/25 09:35:58;;;;;;;0.50;0.50;;;;;;;13.49;80.85;100144.53;5065252;28;20107;-70
2022/09/25 09:38:44;;;;;;;1.35;1.27;;;;;;;13.58;81.75;100131.28;5064875;28;20084;-70
2022/09/25 09:41:14;;;;;;;0.35;0.35;;;;;;;13.83;81.50;100125.44;5064443;28;20033;-70
2022/09/25 09:43:49;;;;;;;0.57;0.57;;;;;;;14.11;81.62;100132.53;5064794;28;20051;-69
2022/09/25 09:46:29;;;;;;;0.60;0.60;;;;;;;14.37;81.03;100123.09;5064857;28;20035;-69
2022/09/25 09:49:00;;;;;;;0.28;0.28;;;;;;;14.61;80.47;100127.63;5064676;28;20236;-71
2022/09/25 09:51:50;;;;;;;0.40;0.40;;;;;;;14.70;79.81;100116.91;5064862;28;20087;-70
2022/09/25 09:54:15;;;;;;;0.82;0.70;;;;;;;14.73;79.80;100119.44;5053751;28;20041;-70
2022/09/25 09:56:46;;;;;;;1.65;1.15;;;;;;;14.81;78.37;100113.16;5063481;28;20035;-70
2022/09/25 09:59:16;;;;;;;0.40;0.40;;;;;;;14.65;78.05;100104.91;5064828;28;20025;-70
2022/09/25 10:01:45;;;;;;;0.40;0.40;;;;;;;14.57;78.25;100113.81;5064751;28;20385;-69
2022/09/25 10:04:18;;;;;;;0.50;0.50;;;;;;;14.42;78.06;100094.25;5064735;28;20135;-71
2022/09/25 10:06:48;;;;;;;0.30;0.30;;;;;;;14.59;79.00;100105.94;5064572;28;20028;-69
2022/09/25 10:09:15;;;;;;;2.05;1.95;;;;;;;14.72;77.88;100109.03;5064539;28;20134;-70
2022/09/25 10:11:42;;;;;;;3.17;2.80;;;;;;;14.60;77.67;100108.50;5064917;28;20084;-69
2022/09/25 10:14:19;;;;;;;0.40;0.40;;;;;;;14.61;77.45;100107.59;5063186;28;20032;-69
2022/09/25 10:16:47;;;;;;;0.60;0.60;;;;;;;14.49;77.15;100102.72;5064352;28;20060;-70
2022/09/25 10:19:18;;;;;;;0.40;0.40;;;;;;;14.37;76.89;100101.34;5064688;28;20033;-70
2022/09/25 10:22:11;;;;;;;0.63;0.63;;;;;;;14.43;77.21;100101.16;5064535;28;20110;-70
2022/09/25 10:24:50;;;;;;;0.80;0.80;;;;;;;14.55;77.49;100093.88;5064294;28;20029;-69
2022/09/25 10:27:36;;;;;;;0.30;0.30;;;;;;;14.69;77.40;100090.84;5064393;28;20032;-70
2022/09/25 10:30:10;;;;;;;0.40;0.40;;;;;;;14.81;77.84;100093.09;5064569;28;20032;-70
2022/09/25 10:32:44;;;;;;;0.40;0.40;;;;;;;14.98;77.20;100083.88;5064452;28;20076;-70
2022/09/25 10:35:20;;;;;;;0.35;0.35;;;;;;;15.02;76.76;100084.59;5067842;28;20017;-70
2022/09/25 10:37:50;;;;;;;0.40;0.40;;;;;;;15.02;76.61;100074.16;5067913;28;20025;-71
2022/09/25 10:40:26;;;;;;;0.50;0.50;;;;;;;15.09;75.74;100065.22;5068077;28;20070;-70
2022/09/25 10:43:05;;;;;;;0.32;0.32;;;;;;;14.92;75.02;100068.38;5067856;28;20032;-70
2022/09/25 10:45:33;;;;;;;0.40;0.40;;;;;;;14.75;74.93;100065.38;5067850;28;20032;-70
2022/09/25 10:50:44;;;;;;;0.55;0.55;;;;;;;15.65;75.34;100060.72;5067631;28;20032;-70
2022/09/25 10:53:28;;;;;;;0.70;0.70;;;;;;;17.07;72.32;100058.03;5067525;28;20052;-70
2022/09/25 10:56:04;;;;;;;0.40;0.40;;;;;;;17.93;69.38;100051.78;5067782;28;20028;-70
2022/09/25 10:58:42;;;;;;;0.40;0.40;;;;;;;17.80;68.53;100050.63;5067715;28;20385;-70
2022/09/25 11:01:12;;;;;;;0.30;0.30;;;;;;;17.45;68.03;100038.13;5066281;28;20040;-70
2022/09/25 11:03:58;;;;;;;0.30;0.30;;;;;;;17.17;67.21;100041.94;5067613;28;20028;-70
2022/09/25 11:06:26;;;;;;;0.30;0.30;;;;;;;17.42;66.35;100033.03;5067373;28;20025;-70
2022/09/25 11:09:03;;;;;;;0.85;0.85;;;;;;;17.03;64.13;100043.34;5067171;28;20083;-71
2022/09/25 11:11:29;;;;;;;0.20;0.20;;;;;;;16.31;65.76;100035.66;5067337;28;20021;-70
2022/09/25 11:13:57;;;;;;;0.65;0.65;;;;;;;15.92;67.83;100028.38;5065924;28;20043;-69
2022/09/25 11:16:49;;;;;;;0.40;0.40;;;;;;;17.25;66.63;100018.88;5066770;28;20028;-70
2022/09/25 11:19:25;;;;;;;0.30;0.30;;;;;;;17.32;64.16;100009.81;5067142;28;20062;-70
2022/09/25 11:22:00;;;;;;;0.30;0.30;;;;;;;16.84;65.10;100014.38;5067225;28;20265;-70
2022/09/25 11:24:42;;;;;;;0.30;0.30;;;;;;;16.58;67.04;100005.84;5066937;28;20021;-70
2022/09/25 11:27:25;;;;;;;0.30;0.30;;;;;;;16.67;67.00;99999.34;5066975;28;20025;-70
2022/09/25 11:30:00;;;;;;;0.30;0.30;;;;;;;17.69;66.30;100004.72;5067137;28;20060;-70
2022/09/25 11:33:01;;;;;;;0.45;0.45;;;;;;;18.32;63.60;100001.91;5065739;28;20040;-70
2022/09/25 11:35:47;;;;;;;0.20;0.20;;;;;;;18.07;64.16;99995.13;5067032;28;20477;-70
2022/09/25 11:41:32;;;;;;;0.28;0.28;;;;;;;17.57;64.89;99997.41;5066730;28;20084;-70
2022/09/25 11:44:33;;;;;;;0.30;0.30;;;;;;;17.62;66.12;99997.19;5065479;28;20097;-70
2022/09/25 11:47:20;;;;;;;0.30;0.30;;;;;;;17.31;64.21;99995.00;5064759;28;20032;-72
2022/09/25 11:49:52;;;;;;;0.30;0.30;;;;;;;17.08;64.02;99978.47;5065385;28;20092;-71
2022/09/25 11:52:41;;;;;;;0.40;0.40;;;;;;;17.05;62.17;99982.94;5066947;28;20029;-64
2022/09/25 11:55:35;;;;;;;0.30;0.30;;;;;;;16.99;61.95;99986.69;5065448;28;20032;-64
2022/09/25 11:58:25;;;;;;;0.30;0.30;;;;;;;16.79;61.17;99988.38;5066988;28;20024;-63